sensor_id;sensor_type;location;lat;lon;timestamp;P1;durP1;ratioP1;P2;durP2;ratioP2
6177;SDS011;3122;48.208;11.174;2023-08-12T00:04:54;8.83;;;6.80;;
6177;SDS011;3122;48.208;11.174;2023-08-12T00:09:54;7.43;;;6.40;;
6177;SDS011;3122;48.208;11.174;2023-08-12T00:14:56;9.67;;;7.33;;
6177;SDS011;3122;48.208;11.174;2023-08-12T00:19:56;7.13;;;6.43;;
6177;SDS011;3122;48.208;11.174;2023-08-12T00:24:57;8.87;;;6.50;;
6177;SDS011;3122;48.208;11.174;2023-08-12T00:29:57;8.93;;;7.70;;
6177;SDS011;3122;48.208;11.174;2023-08-12T00:34:58;8.53;;;6.80;;
6177;SDS011;3122;48.208;11.174;2023-08-12T00:39:59;8.33;;;7.43;;
6177;SDS011;3122;48.208;11.174;2023-08-12T00:44:59;9.80;;;7.40;;
6177;SDS011;3122;48.208;11.174;2023-08-12T00:50:00;10.87;;;7.43;;
6177;SDS011;3122;48.208;11.174;2023-08-12T00:55:00;11.50;;;7.77;;
6177;SDS011;3122;48.208;11.174;2023-08-12T01:00:02;11.57;;;8.60;;
6177;SDS011;3122;48.208;11.174;2023-08-12T01:05:04;8.03;;;7.00;;
6177;SDS011;3122;48.208;11.174;2023-08-12T01:10:05;9.40;;;8.30;;
6177;SDS011;3122;48.208;11.174;2023-08-12T01:15:24;7.83;;;7.13;;
6177;SDS011;3122;48.208;11.174;2023-08-12T01:20:26;8.70;;;7.90;;
6177;SDS011;3122;48.208;11.174;2023-08-12T01:25:27;8.43;;;7.63;;
6177;SDS011;3122;48.208;11.174;2023-08-12T01:30:27;10.63;;;7.23;;
6177;SDS011;3122;48.208;11.174;2023-08-12T01:35:39;7.90;;;7.10;;
6177;SDS011;3122;48.208;11.174;2023-08-12T01:40:44;12.10;;;8.03;;
6177;SDS011;3122;48.208;11.174;2023-08-12T01:45:45;11.60;;;7.53;;
6177;SDS011;3122;48.208;11.174;2023-08-12T01:50:46;8.77;;;7.43;;
6177;SDS011;3122;48.208;11.174;2023-08-12T01:55:48;7.90;;;6.80;;
6177;SDS011;3122;48.208;11.174;2023-08-12T02:00:51;7.27;;;6.57;;
6177;SDS011;3122;48.208;11.174;2023-08-12T02:05:52;8.77;;;6.40;;
6177;SDS011;3122;48.208;11.174;2023-08-12T02:10:52;9.50;;;6.43;;
6177;SDS011;3122;48.208;11.174;2023-08-12T02:15:53;6.10;;;5.50;;
6177;SDS011;3122;48.208;11.174;2023-08-12T02:20:53;6.10;;;5.50;;
6177;SDS011;3122;48.208;11.174;2023-08-12T02:25:54;7.33;;;6.13;;
6177;SDS011;3122;48.208;11.174;2023-08-12T02:30:54;11.07;;;6.93;;
6177;SDS011;3122;48.208;11.174;2023-08-12T02:35:55;7.90;;;7.10;;
6177;SDS011;3122;48.208;11.174;2023-08-12T02:40:55;7.73;;;6.67;;
6177;SDS011;3122;48.208;11.174;2023-08-12T02:45:56;7.23;;;6.53;;
6177;SDS011;3122;48.208;11.174;2023-08-12T02:50:56;8.13;;;7.03;;
6177;SDS011;3122;48.208;11.174;2023-08-12T02:55:57;8.10;;;6.80;;
6177;SDS011;3122;48.208;11.174;2023-08-12T03:00:57;8.10;;;7.30;;
6177;SDS011;3122;48.208;11.174;2023-08-12T03:05:58;8.10;;;7.23;;
6177;SDS011;3122;48.208;11.174;2023-08-12T03:10:59;10.53;;;6.40;;
6177;SDS011;3122;48.208;11.174;2023-08-12T03:16:03;7.50;;;6.80;;
6177;SDS011;3122;48.208;11.174;2023-08-12T03:21:07;8.33;;;6.43;;
6177;SDS011;3122;48.208;11.174;2023-08-12T03:26:08;7.97;;;6.87;;
6177;SDS011;3122;48.208;11.174;2023-08-12T03:31:09;7.47;;;6.77;;
6177;SDS011;3122;48.208;11.174;2023-08-12T03:36:09;8.03;;;7.33;;
6177;SDS011;3122;48.208;11.174;2023-08-12T03:41:10;10.77;;;7.00;;
6177;SDS011;3122;48.208;11.174;2023-08-12T03:46:11;8.80;;;7.17;;
6177;SDS011;3122;48.208;11.174;2023-08-12T03:51:11;7.80;;;7.00;;
6177;SDS011;3122;48.208;11.174;2023-08-12T03:56:12;8.60;;;7.70;;
6177;SDS011;3122;48.208;11.174;2023-08-12T04:01:15;8.20;;;7.40;;
6177;SDS011;3122;48.208;11.174;2023-08-12T04:06:15;9.70;;;7.77;;
6177;SDS011;3122;48.208;11.174;2023-08-12T04:11:16;13.07;;;9.80;;
6177;SDS011;3122;48.208;11.174;2023-08-12T04:16:16;10.40;;;8.97;;
6177;SDS011;3122;48.208;11.174;2023-08-12T04:21:17;11.20;;;8.73;;
6177;SDS011;3122;48.208;11.174;2023-08-12T04:26:17;8.53;;;7.03;;
6177;SDS011;3122;48.208;11.174;2023-08-12T04:31:18;9.07;;;7.00;;
6177;SDS011;3122;48.208;11.174;2023-08-12T04:36:18;8.80;;;7.43;;
6177;SDS011;3122;48.208;11.174;2023-08-12T04:41:19;9.80;;;6.73;;
6177;SDS011;3122;48.208;11.174;2023-08-12T04:46:20;8.37;;;7.30;;
6177;SDS011;3122;48.208;11.174;2023-08-12T04:51:20;7.00;;;6.30;;
6177;SDS011;3122;48.208;11.174;2023-08-12T04:56:21;9.00;;;7.13;;
6177;SDS011;3122;48.208;11.174;2023-08-12T05:01:23;8.40;;;7.60;;
6177;SDS011;3122;48.208;11.174;2023-08-12T05:06:23;9.63;;;7.70;;
6177;SDS011;3122;48.208;11.174;2023-08-12T05:11:24;9.13;;;7.57;;
6177;SDS011;3122;48.208;11.174;2023-08-12T05:16:24;7.83;;;7.13;;
6177;SDS011;3122;48.208;11.174;2023-08-12T05:21:25;9.00;;;7.37;;
6177;SDS011;3122;48.208;11.174;2023-08-12T05:26:26;14.10;;;9.07;;
6177;SDS011;3122;48.208;11.174;2023-08-12T05:31:27;8.93;;;7.87;;
6177;SDS011;3122;48.208;11.174;2023-08-12T05:36:27;9.53;;;8.50;;
6177;SDS011;3122;48.208;11.174;2023-08-12T05:41:29;9.77;;;8.77;;
6177;SDS011;3122;48.208;11.174;2023-08-12T05:46:29;9.03;;;8.13;;
6177;SDS011;3122;48.208;11.174;2023-08-12T05:51:30;8.83;;;7.97;;
6177;SDS011;3122;48.208;11.174;2023-08-12T05:56:30;7.80;;;7.10;;
6177;SDS011;3122;48.208;11.174;2023-08-12T06:01:31;9.30;;;8.40;;
6177;SDS011;3122;48.208;11.174;2023-08-12T06:06:32;8.00;;;7.30;;
6177;SDS011;3122;48.208;11.174;2023-08-12T06:11:33;7.30;;;6.60;;
6177;SDS011;3122;48.208;11.174;2023-08-12T06:16:33;9.60;;;7.30;;
6177;SDS011;3122;48.208;11.174;2023-08-12T06:21:34;8.00;;;7.13;;
6177;SDS011;3122;48.208;11.174;2023-08-12T06:26:35;7.70;;;6.93;;
6177;SDS011;3122;48.208;11.174;2023-08-12T06:31:35;7.90;;;7.13;;
6177;SDS011;3122;48.208;11.174;2023-08-12T06:36:36;7.27;;;6.60;;
6177;SDS011;3122;48.208;11.174;2023-08-12T06:41:36;6.63;;;6.07;;
6177;SDS011;3122;48.208;11.174;2023-08-12T06:46:37;7.87;;;7.10;;
6177;SDS011;3122;48.208;11.174;2023-08-12T06:51:37;7.00;;;6.40;;
6177;SDS011;3122;48.208;11.174;2023-08-12T06:56:38;7.83;;;7.10;;
6177;SDS011;3122;48.208;11.174;2023-08-12T07:01:38;7.57;;;6.50;;
6177;SDS011;3122;48.208;11.174;2023-08-12T07:06:39;6.83;;;6.23;;
6177;SDS011;3122;48.208;11.174;2023-08-12T07:11:40;10.37;;;6.63;;
6177;SDS011;3122;48.208;11.174;2023-08-12T07:16:40;6.90;;;6.20;;
6177;SDS011;3122;48.208;11.174;2023-08-12T07:21:41;7.37;;;6.67;;
6177;SDS011;3122;48.208;11.174;2023-08-12T07:26:41;11.00;;;8.10;;
6177;SDS011;3122;48.208;11.174;2023-08-12T07:31:42;7.20;;;6.50;;
6177;SDS011;3122;48.208;11.174;2023-08-12T07:36:43;8.03;;;7.17;;
6177;SDS011;3122;48.208;11.174;2023-08-12T07:41:44;8.00;;;6.60;;
6177;SDS011;3122;48.208;11.174;2023-08-12T07:46:45;7.30;;;6.60;;
6177;SDS011;3122;48.208;11.174;2023-08-12T07:51:46;6.20;;;5.60;;
6177;SDS011;3122;48.208;11.174;2023-08-12T07:56:46;8.03;;;7.23;;
6177;SDS011;3122;48.208;11.174;2023-08-12T08:01:47;6.77;;;6.17;;
6177;SDS011;3122;48.208;11.174;2023-08-12T08:06:47;6.80;;;6.20;;
6177;SDS011;3122;48.208;11.174;2023-08-12T08:11:48;7.60;;;6.90;;
6177;SDS011;3122;48.208;11.174;2023-08-12T08:16:48;7.03;;;6.00;;
6177;SDS011;3122;48.208;11.174;2023-08-12T08:21:49;7.37;;;6.70;;
6177;SDS011;3122;48.208;11.174;2023-08-12T08:26:49;7.70;;;6.40;;
6177;SDS011;3122;48.208;11.174;2023-08-12T08:31:50;8.03;;;7.33;;
6177;SDS011;3122;48.208;11.174;2023-08-12T08:36:51;7.10;;;6.37;;
6177;SDS011;3122;48.208;11.174;2023-08-12T08:41:51;8.10;;;7.27;;
6177;SDS011;3122;48.208;11.174;2023-08-12T08:46:54;7.23;;;6.53;;
6177;SDS011;3122;48.208;11.174;2023-08-12T08:51:55;6.80;;;6.20;;
6177;SDS011;3122;48.208;11.174;2023-08-12T08:56:56;7.60;;;6.90;;
6177;SDS011;3122;48.208;11.174;2023-08-12T09:01:57;6.80;;;6.20;;
6177;SDS011;3122;48.208;11.174;2023-08-12T09:06:58;7.40;;;6.80;;
6177;SDS011;3122;48.208;11.174;2023-08-12T09:12:00;7.43;;;6.73;;
6177;SDS011;3122;48.208;11.174;2023-08-12T09:17:02;7.50;;;6.80;;
6177;SDS011;3122;48.208;11.174;2023-08-12T09:22:03;8.77;;;6.93;;
6177;SDS011;3122;48.208;11.174;2023-08-12T09:27:05;10.23;;;7.70;;
6177;SDS011;3122;48.208;11.174;2023-08-12T09:37:11;7.50;;;6.80;;
6177;SDS011;3122;48.208;11.174;2023-08-12T09:42:13;6.73;;;6.13;;
6177;SDS011;3122;48.208;11.174;2023-08-12T09:47:13;6.90;;;6.27;;
6177;SDS011;3122;48.208;11.174;2023-08-12T09:52:14;6.73;;;6.23;;
6177;SDS011;3122;48.208;11.174;2023-08-12T09:57:15;7.47;;;6.60;;
6177;SDS011;3122;48.208;11.174;2023-08-12T10:02:18;7.50;;;5.17;;
6177;SDS011;3122;48.208;11.174;2023-08-12T10:07:20;13.10;;;5.70;;
6177;SDS011;3122;48.208;11.174;2023-08-12T10:12:22;7.63;;;5.30;;
6177;SDS011;3122;48.208;11.174;2023-08-12T10:17:23;5.20;;;4.67;;
6177;SDS011;3122;48.208;11.174;2023-08-12T10:22:29;4.87;;;4.47;;
6177;SDS011;3122;48.208;11.174;2023-08-12T10:27:30;5.97;;;5.30;;
6177;SDS011;3122;48.208;11.174;2023-08-12T10:32:31;5.57;;;5.07;;
6177;SDS011;3122;48.208;11.174;2023-08-12T10:37:33;5.40;;;4.90;;
6177;SDS011;3122;48.208;11.174;2023-08-12T10:42:44;5.13;;;4.73;;
6177;SDS011;3122;48.208;11.174;2023-08-12T10:52:52;5.27;;;4.87;;
6177;SDS011;3122;48.208;11.174;2023-08-12T10:57:54;6.03;;;5.43;;
6177;SDS011;3122;48.208;11.174;2023-08-12T11:02:58;7.07;;;4.97;;
6177;SDS011;3122;48.208;11.174;2023-08-12T11:07:59;4.80;;;4.40;;
6177;SDS011;3122;48.208;11.174;2023-08-12T11:13:02;5.80;;;5.30;;
6177;SDS011;3122;48.208;11.174;2023-08-12T11:18:03;5.20;;;4.70;;
6177;SDS011;3122;48.208;11.174;2023-08-12T11:23:06;5.17;;;4.70;;
6177;SDS011;3122;48.208;11.174;2023-08-12T11:28:07;5.27;;;4.60;;
6177;SDS011;3122;48.208;11.174;2023-08-12T11:33:08;5.50;;;5.00;;
6177;SDS011;3122;48.208;11.174;2023-08-12T11:38:09;5.83;;;4.47;;
6177;SDS011;3122;48.208;11.174;2023-08-12T11:43:09;5.73;;;4.60;;
6177;SDS011;3122;48.208;11.174;2023-08-12T11:48:10;6.10;;;4.70;;
6177;SDS011;3122;48.208;11.174;2023-08-12T11:53:11;4.80;;;4.40;;
6177;SDS011;3122;48.208;11.174;2023-08-12T11:58:13;4.43;;;4.07;;
6177;SDS011;3122;48.208;11.174;2023-08-12T12:03:18;4.37;;;4.07;;
6177;SDS011;3122;48.208;11.174;2023-08-12T12:08:19;3.60;;;3.30;;
6177;SDS011;3122;48.208;11.174;2023-08-12T12:13:20;6.20;;;3.57;;
6177;SDS011;3122;48.208;11.174;2023-08-12T12:18:20;4.13;;;3.80;;
6177;SDS011;3122;48.208;11.174;2023-08-12T12:23:21;4.57;;;4.17;;
6177;SDS011;3122;48.208;11.174;2023-08-12T12:28:22;5.20;;;4.40;;
6177;SDS011;3122;48.208;11.174;2023-08-12T12:33:22;4.80;;;4.23;;
6177;SDS011;3122;48.208;11.174;2023-08-12T12:38:23;5.17;;;4.70;;
6177;SDS011;3122;48.208;11.174;2023-08-12T12:43:23;5.73;;;4.37;;
6177;SDS011;3122;48.208;11.174;2023-08-12T12:48:24;5.07;;;4.67;;
6177;SDS011;3122;48.208;11.174;2023-08-12T12:53:25;5.17;;;4.77;;
6177;SDS011;3122;48.208;11.174;2023-08-12T12:58:25;6.30;;;5.10;;
6177;SDS011;3122;48.208;11.174;2023-08-12T13:03:26;7.70;;;5.63;;
6177;SDS011;3122;48.208;11.174;2023-08-12T13:08:28;8.17;;;5.57;;
6177;SDS011;3122;48.208;11.174;2023-08-12T13:13:30;5.03;;;4.53;;
6177;SDS011;3122;48.208;11.174;2023-08-12T13:18:31;5.93;;;4.60;;
6177;SDS011;3122;48.208;11.174;2023-08-12T13:23:31;4.63;;;4.23;;
6177;SDS011;3122;48.208;11.174;2023-08-12T13:28:32;4.60;;;4.20;;
6177;SDS011;3122;48.208;11.174;2023-08-12T13:33:32;5.93;;;5.30;;
6177;SDS011;3122;48.208;11.174;2023-08-12T13:38:33;7.70;;;5.70;;
6177;SDS011;3122;48.208;11.174;2023-08-12T13:43:33;5.87;;;5.30;;
6177;SDS011;3122;48.208;11.174;2023-08-12T13:48:34;5.77;;;5.20;;
6177;SDS011;3122;48.208;11.174;2023-08-12T13:53:35;6.10;;;5.50;;
6177;SDS011;3122;48.208;11.174;2023-08-12T13:58:35;7.83;;;5.10;;
6177;SDS011;3122;48.208;11.174;2023-08-12T14:03:36;5.90;;;5.40;;
6177;SDS011;3122;48.208;11.174;2023-08-12T14:08:37;6.90;;;5.23;;
6177;SDS011;3122;48.208;11.174;2023-08-12T14:13:37;5.90;;;5.30;;
6177;SDS011;3122;48.208;11.174;2023-08-12T14:18:38;9.60;;;4.97;;
6177;SDS011;3122;48.208;11.174;2023-08-12T14:23:38;7.27;;;4.87;;
6177;SDS011;3122;48.208;11.174;2023-08-12T14:28:39;7.80;;;4.93;;
6177;SDS011;3122;48.208;11.174;2023-08-12T14:33:40;8.40;;;5.00;;
6177;SDS011;3122;48.208;11.174;2023-08-12T14:38:40;6.93;;;5.10;;
6177;SDS011;3122;48.208;11.174;2023-08-12T14:43:41;6.00;;;5.07;;
6177;SDS011;3122;48.208;11.174;2023-08-12T14:48:41;6.90;;;4.83;;
6177;SDS011;3122;48.208;11.174;2023-08-12T14:53:42;5.87;;;4.10;;
6177;SDS011;3122;48.208;11.174;2023-08-12T14:58:42;6.77;;;4.90;;
6177;SDS011;3122;48.208;11.174;2023-08-12T15:03:44;8.60;;;4.70;;
6177;SDS011;3122;48.208;11.174;2023-08-12T15:08:45;6.10;;;5.20;;
6177;SDS011;3122;48.208;11.174;2023-08-12T15:13:45;5.33;;;4.83;;
6177;SDS011;3122;48.208;11.174;2023-08-12T15:18:46;9.33;;;4.77;;
6177;SDS011;3122;48.208;11.174;2023-08-12T15:23:46;6.37;;;4.83;;
6177;SDS011;3122;48.208;11.174;2023-08-12T15:28:47;9.33;;;5.73;;
6177;SDS011;3122;48.208;11.174;2023-08-12T15:33:48;5.50;;;4.90;;
6177;SDS011;3122;48.208;11.174;2023-08-12T15:38:48;9.00;;;5.00;;
6177;SDS011;3122;48.208;11.174;2023-08-12T15:43:49;5.50;;;5.00;;
6177;SDS011;3122;48.208;11.174;2023-08-12T15:48:49;5.87;;;4.67;;
6177;SDS011;3122;48.208;11.174;2023-08-12T15:53:50;12.27;;;4.80;;
6177;SDS011;3122;48.208;11.174;2023-08-12T15:58:50;5.80;;;4.97;;
6177;SDS011;3122;48.208;11.174;2023-08-12T16:03:51;13.00;;;5.23;;
6177;SDS011;3122;48.208;11.174;2023-08-12T16:08:52;9.77;;;5.30;;
6177;SDS011;3122;48.208;11.174;2023-08-12T16:13:52;7.00;;;4.93;;
6177;SDS011;3122;48.208;11.174;2023-08-12T16:18:53;8.03;;;4.70;;
6177;SDS011;3122;48.208;11.174;2023-08-12T16:23:53;7.27;;;5.50;;
6177;SDS011;3122;48.208;11.174;2023-08-12T16:28:54;8.60;;;5.40;;
6177;SDS011;3122;48.208;11.174;2023-08-12T16:33:54;5.53;;;5.03;;
6177;SDS011;3122;48.208;11.174;2023-08-12T16:38:55;14.40;;;5.57;;
6177;SDS011;3122;48.208;11.174;2023-08-12T16:43:56;7.10;;;6.40;;
6177;SDS011;3122;48.208;11.174;2023-08-12T16:48:56;8.10;;;5.10;;
6177;SDS011;3122;48.208;11.174;2023-08-12T16:53:57;7.10;;;5.07;;
6177;SDS011;3122;48.208;11.174;2023-08-12T16:58:58;5.87;;;5.20;;
6177;SDS011;3122;48.208;11.174;2023-08-12T17:03:58;8.57;;;5.20;;
6177;SDS011;3122;48.208;11.174;2023-08-12T17:09:00;6.07;;;5.47;;
6177;SDS011;3122;48.208;11.174;2023-08-12T17:14:00;7.70;;;5.33;;
6177;SDS011;3122;48.208;11.174;2023-08-12T17:19:01;6.97;;;4.93;;
6177;SDS011;3122;48.208;11.174;2023-08-12T17:24:01;7.67;;;5.70;;
6177;SDS011;3122;48.208;11.174;2023-08-12T17:29:03;6.37;;;5.43;;
6177;SDS011;3122;48.208;11.174;2023-08-12T17:34:04;7.70;;;5.53;;
6177;SDS011;3122;48.208;11.174;2023-08-12T17:39:05;5.60;;;4.83;;
6177;SDS011;3122;48.208;11.174;2023-08-12T17:44:05;9.20;;;5.07;;
6177;SDS011;3122;48.208;11.174;2023-08-12T17:49:07;8.07;;;4.93;;
6177;SDS011;3122;48.208;11.174;2023-08-12T17:54:07;14.20;;;6.10;;
6177;SDS011;3122;48.208;11.174;2023-08-12T17:59:08;5.87;;;5.00;;
6177;SDS011;3122;48.208;11.174;2023-08-12T18:04:08;6.07;;;5.47;;
6177;SDS011;3122;48.208;11.174;2023-08-12T18:09:09;5.87;;;5.27;;
6177;SDS011;3122;48.208;11.174;2023-08-12T18:14:09;6.97;;;4.97;;
6177;SDS011;3122;48.208;11.174;2023-08-12T18:19:10;11.67;;;4.80;;
6177;SDS011;3122;48.208;11.174;2023-08-12T18:24:11;12.13;;;5.30;;
6177;SDS011;3122;48.208;11.174;2023-08-12T18:29:11;11.50;;;5.57;;
6177;SDS011;3122;48.208;11.174;2023-08-12T18:34:12;7.93;;;5.40;;
6177;SDS011;3122;48.208;11.174;2023-08-12T18:39:12;6.60;;;4.70;;
6177;SDS011;3122;48.208;11.174;2023-08-12T18:44:13;9.63;;;4.40;;
6177;SDS011;3122;48.208;11.174;2023-08-12T18:49:14;3.70;;;3.00;;
6177;SDS011;3122;48.208;11.174;2023-08-12T18:54:14;2.83;;;2.63;;
6177;SDS011;3122;48.208;11.174;2023-08-12T18:59:15;3.53;;;3.23;;
6177;SDS011;3122;48.208;11.174;2023-08-12T19:04:15;3.67;;;3.37;;
6177;SDS011;3122;48.208;11.174;2023-08-12T19:09:16;4.03;;;3.20;;
6177;SDS011;3122;48.208;11.174;2023-08-12T19:14:17;4.60;;;3.20;;
6177;SDS011;3122;48.208;11.174;2023-08-12T19:19:18;3.70;;;3.40;;
6177;SDS011;3122;48.208;11.174;2023-08-12T19:24:18;4.37;;;3.97;;
6177;SDS011;3122;48.208;11.174;2023-08-12T19:29:19;4.10;;;3.70;;
6177;SDS011;3122;48.208;11.174;2023-08-12T19:34:19;6.30;;;4.07;;
6177;SDS011;3122;48.208;11.174;2023-08-12T19:39:20;6.60;;;3.60;;
6177;SDS011;3122;48.208;11.174;2023-08-12T19:44:21;4.10;;;3.70;;
6177;SDS011;3122;48.208;11.174;2023-08-12T19:49:21;4.90;;;4.17;;
6177;SDS011;3122;48.208;11.174;2023-08-12T19:54:22;4.83;;;4.30;;
6177;SDS011;3122;48.208;11.174;2023-08-12T19:59:22;5.70;;;4.17;;
6177;SDS011;3122;48.208;11.174;2023-08-12T20:04:23;5.23;;;4.50;;
6177;SDS011;3122;48.208;11.174;2023-08-12T20:09:24;19.63;;;11.00;;
6177;SDS011;3122;48.208;11.174;2023-08-12T20:14:25;12.53;;;9.30;;
6177;SDS011;3122;48.208;11.174;2023-08-12T20:19:25;13.23;;;7.50;;
6177;SDS011;3122;48.208;11.174;2023-08-12T20:24:26;9.83;;;7.63;;
6177;SDS011;3122;48.208;11.174;2023-08-12T20:29:27;12.47;;;5.07;;
6177;SDS011;3122;48.208;11.174;2023-08-12T20:34:27;7.53;;;4.97;;
6177;SDS011;3122;48.208;11.174;2023-08-12T20:39:28;10.33;;;5.63;;
6177;SDS011;3122;48.208;11.174;2023-08-12T20:44:28;10.90;;;5.73;;
6177;SDS011;3122;48.208;11.174;2023-08-12T20:49:29;16.43;;;5.70;;
6177;SDS011;3122;48.208;11.174;2023-08-12T20:54:30;20.57;;;8.33;;
6177;SDS011;3122;48.208;11.174;2023-08-12T20:59:31;17.20;;;7.27;;
6177;SDS011;3122;48.208;11.174;2023-08-12T21:04:31;17.73;;;7.97;;
6177;SDS011;3122;48.208;11.174;2023-08-12T21:09:32;18.80;;;8.30;;
6177;SDS011;3122;48.208;11.174;2023-08-12T21:14:33;18.73;;;6.90;;
6177;SDS011;3122;48.208;11.174;2023-08-12T21:19:34;14.03;;;7.10;;
6177;SDS011;3122;48.208;11.174;2023-08-12T21:24:34;15.50;;;7.33;;
6177;SDS011;3122;48.208;11.174;2023-08-12T21:29:35;12.87;;;6.50;;
6177;SDS011;3122;48.208;11.174;2023-08-12T21:34:35;22.77;;;7.80;;
6177;SDS011;3122;48.208;11.174;2023-08-12T21:39:36;20.97;;;6.80;;
6177;SDS011;3122;48.208;11.174;2023-08-12T21:44:37;18.60;;;7.27;;
6177;SDS011;3122;48.208;11.174;2023-08-12T21:49:37;24.17;;;8.17;;
6177;SDS011;3122;48.208;11.174;2023-08-12T21:54:38;16.03;;;7.50;;
6177;SDS011;3122;48.208;11.174;2023-08-12T21:59:41;26.10;;;8.77;;
6177;SDS011;3122;48.208;11.174;2023-08-12T22:04:41;25.40;;;7.70;;
6177;SDS011;3122;48.208;11.174;2023-08-12T22:09:42;17.57;;;8.60;;
6177;SDS011;3122;48.208;11.174;2023-08-12T22:14:42;20.30;;;9.53;;
6177;SDS011;3122;48.208;11.174;2023-08-12T22:19:43;16.03;;;8.10;;
6177;SDS011;3122;48.208;11.174;2023-08-12T22:24:48;9.57;;;6.87;;
6177;SDS011;3122;48.208;11.174;2023-08-12T22:29:48;11.17;;;6.17;;
6177;SDS011;3122;48.208;11.174;2023-08-12T22:34:49;14.00;;;7.27;;
6177;SDS011;3122;48.208;11.174;2023-08-12T22:39:49;14.97;;;6.40;;
6177;SDS011;3122;48.208;11.174;2023-08-12T22:44:50;17.30;;;7.90;;
6177;SDS011;3122;48.208;11.174;2023-08-12T22:49:50;14.53;;;6.83;;
6177;SDS011;3122;48.208;11.174;2023-08-12T22:54:51;11.70;;;7.60;;
6177;SDS011;3122;48.208;11.174;2023-08-12T22:59:51;12.57;;;8.00;;
6177;SDS011;3122;48.208;11.174;2023-08-12T23:04:52;21.50;;;12.20;;
6177;SDS011;3122;48.208;11.174;2023-08-12T23:09:52;25.10;;;14.03;;
6177;SDS011;3122;48.208;11.174;2023-08-12T23:14:53;19.03;;;13.13;;
6177;SDS011;3122;48.208;11.174;2023-08-12T23:19:54;17.30;;;9.13;;
6177;SDS011;3122;48.208;11.174;2023-08-12T23:24:54;13.43;;;7.93;;
6177;SDS011;3122;48.208;11.174;2023-08-12T23:29:55;17.67;;;7.03;;
6177;SDS011;3122;48.208;11.174;2023-08-12T23:34:56;12.80;;;8.87;;
6177;SDS011;3122;48.208;11.174;2023-08-12T23:39:56;16.03;;;9.70;;
6177;SDS011;3122;48.208;11.174;2023-08-12T23:44:57;12.10;;;8.83;;
6177;SDS011;3122;48.208;11.174;2023-08-12T23:49:57;15.17;;;8.70;;
6177;SDS011;3122;48.208;11.174;2023-08-12T23:54:58;11.30;;;7.27;;
6177;SDS011;3122;48.208;11.174;2023-08-12T23:59:58;12.57;;;7.40;;
